Terminal Aerodrome Forecast
Issued by NWS

Home | Current Version | Previous Version | Graphics & Text | Print | Product List | Glossary On
Versions: 1 2 3 4 5 6 7 8 9 10 11 12 13 14 15 16 17
000
FTUS43 KABR 171600 AAC
TAFATY
TAF AMD
KATY 171624Z 1716/1812 28009KT P6SM FEW009 BKN040
      TEMPO 1716/1718 SCT040
     FM171800 36006KT P6SM SCT020 SCT050
     FM172200 VRB06KT P6SM SCT015 BKN025
     FM180600 20006KT P6SM VCSH BKN040
     FM181000 20006KT P6SM SKC=

USA.gov is the U.S. government's official web portal to all federal, state and local government web resources and services.